sensor_id;sensor_type;location;lat;lon;timestamp;P1;durP1;ratioP1;P2;durP2;ratioP2
16770;SDS011;8503;52.472;13.344;2024-02-28T00:00:05;11.25;;;5.25;;
16770;SDS011;8503;52.472;13.344;2024-02-28T00:00:52;15.18;;;5.38;;
16770;SDS011;8503;52.472;13.344;2024-02-28T00:01:34;10.80;;;5.78;;
16770;SDS011;8503;52.472;13.344;2024-02-28T00:02:17;12.95;;;5.70;;
16770;SDS011;8503;52.472;13.344;2024-02-28T00:03:00;12.65;;;5.28;;
16770;SDS011;8503;52.472;13.344;2024-02-28T00:03:43;12.70;;;5.45;;
16770;SDS011;8503;52.472;13.344;2024-02-28T00:04:25;12.43;;;5.13;;
16770;SDS011;8503;52.472;13.344;2024-02-28T00:05:16;11.85;;;5.07;;
16770;SDS011;8503;52.472;13.344;2024-02-28T00:05:58;10.60;;;4.85;;
16770;SDS011;8503;52.472;13.344;2024-02-28T00:06:41;10.73;;;5.30;;
16770;SDS011;8503;52.472;13.344;2024-02-28T00:07:24;15.30;;;6.05;;
16770;SDS011;8503;52.472;13.344;2024-02-28T00:08:07;13.73;;;5.80;;
16770;SDS011;8503;52.472;13.344;2024-02-28T00:08:51;15.13;;;5.60;;
16770;SDS011;8503;52.472;13.344;2024-02-28T00:09:36;13.30;;;5.72;;
16770;SDS011;8503;52.472;13.344;2024-02-28T00:10:19;13.15;;;5.78;;
16770;SDS011;8503;52.472;13.344;2024-02-28T00:11:04;14.52;;;5.47;;
16770;SDS011;8503;52.472;13.344;2024-02-28T00:11:48;14.32;;;5.35;;
16770;SDS011;8503;52.472;13.344;2024-02-28T00:12:30;12.75;;;5.35;;
16770;SDS011;8503;52.472;13.344;2024-02-28T00:13:14;11.63;;;5.28;;
16770;SDS011;8503;52.472;13.344;2024-02-28T00:13:57;9.85;;;4.75;;
16770;SDS011;8503;52.472;13.344;2024-02-28T00:14:41;13.82;;;5.80;;
16770;SDS011;8503;52.472;13.344;2024-02-28T00:15:24;11.23;;;5.20;;
16770;SDS011;8503;52.472;13.344;2024-02-28T00:16:08;14.68;;;6.05;;
16770;SDS011;8503;52.472;13.344;2024-02-28T00:16:50;12.45;;;5.55;;
16770;SDS011;8503;52.472;13.344;2024-02-28T00:17:33;11.52;;;4.78;;
16770;SDS011;8503;52.472;13.344;2024-02-28T00:18:16;9.13;;;4.78;;
16770;SDS011;8503;52.472;13.344;2024-02-28T00:19:00;14.43;;;5.78;;
16770;SDS011;8503;52.472;13.344;2024-02-28T00:19:43;10.40;;;4.88;;
16770;SDS011;8503;52.472;13.344;2024-02-28T00:20:25;11.52;;;5.70;;
16770;SDS011;8503;52.472;13.344;2024-02-28T00:21:10;12.23;;;5.18;;
16770;SDS011;8503;52.472;13.344;2024-02-28T00:21:53;11.18;;;5.65;;
16770;SDS011;8503;52.472;13.344;2024-02-28T00:22:36;10.15;;;4.80;;
16770;SDS011;8503;52.472;13.344;2024-02-28T00:23:19;14.57;;;5.47;;
16770;SDS011;8503;52.472;13.344;2024-02-28T00:24:03;15.52;;;5.95;;
16770;SDS011;8503;52.472;13.344;2024-02-28T00:24:46;13.23;;;6.13;;
16770;SDS011;8503;52.472;13.344;2024-02-28T00:25:30;13.32;;;5.18;;
16770;SDS011;8503;52.472;13.344;2024-02-28T00:26:12;12.30;;;5.47;;
16770;SDS011;8503;52.472;13.344;2024-02-28T00:26:55;11.50;;;6.00;;
16770;SDS011;8503;52.472;13.344;2024-02-28T00:27:38;13.32;;;6.07;;
16770;SDS011;8503;52.472;13.344;2024-02-28T00:28:21;13.23;;;5.70;;
16770;SDS011;8503;52.472;13.344;2024-02-28T00:29:03;12.93;;;5.68;;
16770;SDS011;8503;52.472;13.344;2024-02-28T00:29:46;13.30;;;6.00;;
16770;SDS011;8503;52.472;13.344;2024-02-28T00:30:29;14.10;;;6.03;;
16770;SDS011;8503;52.472;13.344;2024-02-28T00:31:13;15.82;;;6.13;;
16770;SDS011;8503;52.472;13.344;2024-02-28T00:31:57;10.07;;;5.43;;
16770;SDS011;8503;52.472;13.344;2024-02-28T00:32:39;13.02;;;4.75;;
16770;SDS011;8503;52.472;13.344;2024-02-28T00:33:21;13.43;;;5.47;;
16770;SDS011;8503;52.472;13.344;2024-02-28T00:34:05;14.15;;;5.72;;
16770;SDS011;8503;52.472;13.344;2024-02-28T00:34:49;9.80;;;5.07;;
16770;SDS011;8503;52.472;13.344;2024-02-28T00:35:32;17.70;;;6.40;;
16770;SDS011;8503;52.472;13.344;2024-02-28T00:36:17;14.30;;;6.20;;
16770;SDS011;8503;52.472;13.344;2024-02-28T00:37:00;9.90;;;5.38;;
16770;SDS011;8503;52.472;13.344;2024-02-28T00:37:42;12.07;;;6.55;;
16770;SDS011;8503;52.472;13.344;2024-02-28T00:38:25;12.93;;;5.65;;
16770;SDS011;8503;52.472;13.344;2024-02-28T00:39:10;17.33;;;6.53;;
16770;SDS011;8503;52.472;13.344;2024-02-28T00:39:53;15.43;;;6.05;;
16770;SDS011;8503;52.472;13.344;2024-02-28T00:40:35;12.13;;;4.78;;
16770;SDS011;8503;52.472;13.344;2024-02-28T00:41:19;11.20;;;5.50;;
16770;SDS011;8503;52.472;13.344;2024-02-28T00:42:02;13.48;;;5.90;;
16770;SDS011;8503;52.472;13.344;2024-02-28T00:42:44;9.82;;;4.20;;
16770;SDS011;8503;52.472;13.344;2024-02-28T00:43:28;12.07;;;5.80;;
16770;SDS011;8503;52.472;13.344;2024-02-28T00:44:10;11.25;;;5.00;;
16770;SDS011;8503;52.472;13.344;2024-02-28T00:44:52;14.05;;;5.97;;
16770;SDS011;8503;52.472;13.344;2024-02-28T00:45:36;9.95;;;5.03;;
16770;SDS011;8503;52.472;13.344;2024-02-28T00:46:18;14.00;;;6.25;;
16770;SDS011;8503;52.472;13.344;2024-02-28T00:47:01;12.43;;;5.53;;
16770;SDS011;8503;52.472;13.344;2024-02-28T00:47:43;12.82;;;5.75;;
16770;SDS011;8503;52.472;13.344;2024-02-28T00:48:27;10.90;;;5.80;;
16770;SDS011;8503;52.472;13.344;2024-02-28T00:49:09;14.20;;;6.07;;
16770;SDS011;8503;52.472;13.344;2024-02-28T00:49:52;13.85;;;5.75;;
16770;SDS011;8503;52.472;13.344;2024-02-28T00:50:35;12.93;;;6.00;;
16770;SDS011;8503;52.472;13.344;2024-02-28T00:51:18;11.13;;;5.57;;
16770;SDS011;8503;52.472;13.344;2024-02-28T00:52:00;15.27;;;6.07;;
16770;SDS011;8503;52.472;13.344;2024-02-28T00:52:44;10.70;;;5.57;;
16770;SDS011;8503;52.472;13.344;2024-02-28T00:53:26;14.00;;;5.47;;
16770;SDS011;8503;52.472;13.344;2024-02-28T00:54:10;17.30;;;6.00;;
16770;SDS011;8503;52.472;13.344;2024-02-28T00:54:53;13.40;;;5.60;;
16770;SDS011;8503;52.472;13.344;2024-02-28T00:55:36;14.40;;;5.50;;
16770;SDS011;8503;52.472;13.344;2024-02-28T00:56:19;13.25;;;6.10;;
16770;SDS011;8503;52.472;13.344;2024-02-28T00:57:01;12.88;;;5.20;;
16770;SDS011;8503;52.472;13.344;2024-02-28T00:57:45;11.65;;;5.35;;
16770;SDS011;8503;52.472;13.344;2024-02-28T00:58:28;13.98;;;6.13;;
16770;SDS011;8503;52.472;13.344;2024-02-28T00:59:11;13.88;;;5.88;;
16770;SDS011;8503;52.472;13.344;2024-02-28T00:59:55;12.68;;;5.85;;
16770;SDS011;8503;52.472;13.344;2024-02-28T01:00:37;12.30;;;5.47;;
16770;SDS011;8503;52.472;13.344;2024-02-28T01:01:20;13.07;;;4.85;;
16770;SDS011;8503;52.472;13.344;2024-02-28T01:02:03;11.02;;;5.22;;
16770;SDS011;8503;52.472;13.344;2024-02-28T01:02:46;14.25;;;6.15;;
16770;SDS011;8503;52.472;13.344;2024-02-28T01:03:28;13.60;;;5.95;;
16770;SDS011;8503;52.472;13.344;2024-02-28T01:04:11;12.02;;;5.15;;
16770;SDS011;8503;52.472;13.344;2024-02-28T01:04:54;16.02;;;6.55;;
16770;SDS011;8503;52.472;13.344;2024-02-28T01:05:36;10.82;;;5.65;;
16770;SDS011;8503;52.472;13.344;2024-02-28T01:06:19;11.02;;;5.57;;
16770;SDS011;8503;52.472;13.344;2024-02-28T01:07:02;13.43;;;5.35;;
16770;SDS011;8503;52.472;13.344;2024-02-28T01:07:45;12.43;;;5.35;;
16770;SDS011;8503;52.472;13.344;2024-02-28T01:08:27;13.70;;;5.88;;
16770;SDS011;8503;52.472;13.344;2024-02-28T01:09:12;11.23;;;4.80;;
16770;SDS011;8503;52.472;13.344;2024-02-28T01:09:55;16.17;;;6.75;;
16770;SDS011;8503;52.472;13.344;2024-02-28T01:10:37;12.63;;;6.43;;
16770;SDS011;8503;52.472;13.344;2024-02-28T01:11:22;14.02;;;5.10;;
16770;SDS011;8503;52.472;13.344;2024-02-28T01:12:05;13.25;;;6.13;;
16770;SDS011;8503;52.472;13.344;2024-02-28T01:12:47;16.23;;;6.00;;
16770;SDS011;8503;52.472;13.344;2024-02-28T01:13:32;12.27;;;5.55;;
16770;SDS011;8503;52.472;13.344;2024-02-28T01:14:14;11.75;;;6.28;;
16770;SDS011;8503;52.472;13.344;2024-02-28T01:14:57;11.75;;;5.72;;
16770;SDS011;8503;52.472;13.344;2024-02-28T01:15:40;15.65;;;6.15;;
16770;SDS011;8503;52.472;13.344;2024-02-28T01:16:23;11.15;;;5.38;;
16770;SDS011;8503;52.472;13.344;2024-02-28T01:17:06;16.85;;;5.88;;
16770;SDS011;8503;52.472;13.344;2024-02-28T01:17:50;11.52;;;5.90;;
16770;SDS011;8503;52.472;13.344;2024-02-28T01:18:33;13.80;;;5.55;;
16770;SDS011;8503;52.472;13.344;2024-02-28T01:19:16;13.73;;;6.57;;
16770;SDS011;8503;52.472;13.344;2024-02-28T01:19:59;14.73;;;6.50;;
16770;SDS011;8503;52.472;13.344;2024-02-28T01:20:42;14.63;;;5.95;;
16770;SDS011;8503;52.472;13.344;2024-02-28T01:21:24;14.85;;;5.93;;
16770;SDS011;8503;52.472;13.344;2024-02-28T01:22:08;14.90;;;5.88;;
16770;SDS011;8503;52.472;13.344;2024-02-28T01:22:50;14.82;;;5.70;;
16770;SDS011;8503;52.472;13.344;2024-02-28T01:23:33;14.88;;;6.43;;
16770;SDS011;8503;52.472;13.344;2024-02-28T01:24:17;14.52;;;6.05;;
16770;SDS011;8503;52.472;13.344;2024-02-28T01:25:00;13.52;;;6.07;;
16770;SDS011;8503;52.472;13.344;2024-02-28T01:25:44;14.35;;;6.70;;
16770;SDS011;8503;52.472;13.344;2024-02-28T01:26:27;16.17;;;6.60;;
16770;SDS011;8503;52.472;13.344;2024-02-28T01:27:09;12.57;;;5.25;;
16770;SDS011;8503;52.472;13.344;2024-02-28T01:27:52;15.68;;;6.13;;
16770;SDS011;8503;52.472;13.344;2024-02-28T01:28:36;19.63;;;7.43;;
16770;SDS011;8503;52.472;13.344;2024-02-28T01:29:19;14.48;;;6.25;;
16770;SDS011;8503;52.472;13.344;2024-02-28T01:30:01;13.80;;;6.32;;
16770;SDS011;8503;52.472;13.344;2024-02-28T01:30:45;13.88;;;5.93;;
16770;SDS011;8503;52.472;13.344;2024-02-28T01:31:28;14.48;;;6.45;;
16770;SDS011;8503;52.472;13.344;2024-02-28T01:32:10;16.98;;;6.78;;
16770;SDS011;8503;52.472;13.344;2024-02-28T01:32:53;13.43;;;5.70;;
16770;SDS011;8503;52.472;13.344;2024-02-28T01:33:36;13.02;;;5.88;;
16770;SDS011;8503;52.472;13.344;2024-02-28T01:34:18;15.80;;;7.03;;
16770;SDS011;8503;52.472;13.344;2024-02-28T01:35:02;15.40;;;6.22;;
16770;SDS011;8503;52.472;13.344;2024-02-28T01:35:45;13.02;;;6.55;;
16770;SDS011;8503;52.472;13.344;2024-02-28T01:36:27;14.60;;;6.30;;
16770;SDS011;8503;52.472;13.344;2024-02-28T01:37:10;13.63;;;5.95;;
16770;SDS011;8503;52.472;13.344;2024-02-28T01:37:53;18.52;;;7.10;;
16770;SDS011;8503;52.472;13.344;2024-02-28T01:38:35;17.45;;;6.55;;
16770;SDS011;8503;52.472;13.344;2024-02-28T01:39:20;18.63;;;7.50;;
16770;SDS011;8503;52.472;13.344;2024-02-28T01:40:03;12.63;;;5.95;;
16770;SDS011;8503;52.472;13.344;2024-02-28T01:40:46;13.93;;;6.05;;
16770;SDS011;8503;52.472;13.344;2024-02-28T01:41:29;18.25;;;7.18;;
16770;SDS011;8503;52.472;13.344;2024-02-28T01:42:13;15.45;;;6.78;;
16770;SDS011;8503;52.472;13.344;2024-02-28T01:43:01;14.50;;;6.93;;
16770;SDS011;8503;52.472;13.344;2024-02-28T01:43:46;18.75;;;6.90;;
16770;SDS011;8503;52.472;13.344;2024-02-28T01:44:28;16.00;;;6.35;;
16770;SDS011;8503;52.472;13.344;2024-02-28T01:45:12;13.30;;;6.47;;
16770;SDS011;8503;52.472;13.344;2024-02-28T01:45:56;21.05;;;8.30;;
16770;SDS011;8503;52.472;13.344;2024-02-28T01:46:40;17.85;;;6.78;;
16770;SDS011;8503;52.472;13.344;2024-02-28T01:47:22;16.65;;;6.80;;
16770;SDS011;8503;52.472;13.344;2024-02-28T01:48:06;15.93;;;6.32;;
16770;SDS011;8503;52.472;13.344;2024-02-28T01:48:49;14.73;;;6.30;;
16770;SDS011;8503;52.472;13.344;2024-02-28T01:49:32;14.50;;;6.55;;
16770;SDS011;8503;52.472;13.344;2024-02-28T01:50:16;12.73;;;6.28;;
16770;SDS011;8503;52.472;13.344;2024-02-28T01:50:58;13.02;;;6.05;;
16770;SDS011;8503;52.472;13.344;2024-02-28T01:51:41;13.00;;;5.75;;
16770;SDS011;8503;52.472;13.344;2024-02-28T01:52:24;12.77;;;6.15;;
16770;SDS011;8503;52.472;13.344;2024-02-28T01:53:07;14.25;;;6.50;;
16770;SDS011;8503;52.472;13.344;2024-02-28T01:53:51;11.15;;;5.95;;
16770;SDS011;8503;52.472;13.344;2024-02-28T01:54:36;14.63;;;6.68;;
16770;SDS011;8503;52.472;13.344;2024-02-28T01:55:19;14.40;;;5.65;;
16770;SDS011;8503;52.472;13.344;2024-02-28T01:56:02;14.05;;;5.85;;
16770;SDS011;8503;52.472;13.344;2024-02-28T01:56:45;12.95;;;5.82;;
16770;SDS011;8503;52.472;13.344;2024-02-28T01:57:28;14.05;;;5.50;;
16770;SDS011;8503;52.472;13.344;2024-02-28T01:58:12;11.80;;;5.78;;
16770;SDS011;8503;52.472;13.344;2024-02-28T01:58:55;12.77;;;6.00;;
16770;SDS011;8503;52.472;13.344;2024-02-28T01:59:40;12.50;;;5.90;;
16770;SDS011;8503;52.472;13.344;2024-02-28T02:00:23;17.23;;;6.30;;
16770;SDS011;8503;52.472;13.344;2024-02-28T02:01:07;14.60;;;4.88;;
16770;SDS011;8503;52.472;13.344;2024-02-28T02:01:51;15.60;;;5.90;;
16770;SDS011;8503;52.472;13.344;2024-02-28T02:02:34;13.48;;;5.25;;
16770;SDS011;8503;52.472;13.344;2024-02-28T02:03:17;11.82;;;5.80;;
16770;SDS011;8503;52.472;13.344;2024-02-28T02:04:00;10.23;;;5.63;;
16770;SDS011;8503;52.472;13.344;2024-02-28T02:04:46;10.90;;;5.00;;
16770;SDS011;8503;52.472;13.344;2024-02-28T02:05:29;12.35;;;5.07;;
16770;SDS011;8503;52.472;13.344;2024-02-28T02:06:11;15.88;;;7.00;;
16770;SDS011;8503;52.472;13.344;2024-02-28T02:06:55;12.30;;;5.65;;
16770;SDS011;8503;52.472;13.344;2024-02-28T02:07:39;12.85;;;6.15;;
16770;SDS011;8503;52.472;13.344;2024-02-28T02:08:22;14.35;;;5.18;;
16770;SDS011;8503;52.472;13.344;2024-02-28T02:09:05;10.20;;;4.47;;
16770;SDS011;8503;52.472;13.344;2024-02-28T02:09:49;13.50;;;5.18;;
16770;SDS011;8503;52.472;13.344;2024-02-28T02:10:33;15.60;;;5.55;;
16770;SDS011;8503;52.472;13.344;2024-02-28T02:11:16;13.00;;;6.50;;
16770;SDS011;8503;52.472;13.344;2024-02-28T02:12:00;11.27;;;4.93;;
16770;SDS011;8503;52.472;13.344;2024-02-28T02:12:43;16.02;;;6.65;;
16770;SDS011;8503;52.472;13.344;2024-02-28T02:13:26;11.20;;;5.75;;
16770;SDS011;8503;52.472;13.344;2024-02-28T02:14:08;14.27;;;6.10;;
16770;SDS011;8503;52.472;13.344;2024-02-28T02:14:53;10.70;;;5.13;;
16770;SDS011;8503;52.472;13.344;2024-02-28T02:15:35;14.60;;;6.07;;
16770;SDS011;8503;52.472;13.344;2024-02-28T02:16:18;14.18;;;6.15;;
16770;SDS011;8503;52.472;13.344;2024-02-28T02:17:03;15.85;;;5.75;;
16770;SDS011;8503;52.472;13.344;2024-02-28T02:17:46;12.00;;;5.45;;
16770;SDS011;8503;52.472;13.344;2024-02-28T02:18:29;12.57;;;5.15;;
16770;SDS011;8503;52.472;13.344;2024-02-28T02:19:12;13.30;;;5.90;;
16770;SDS011;8503;52.472;13.344;2024-02-28T02:19:56;10.77;;;5.18;;
16770;SDS011;8503;52.472;13.344;2024-02-28T02:20:40;11.20;;;5.10;;
16770;SDS011;8503;52.472;13.344;2024-02-28T02:21:26;14.48;;;5.70;;
16770;SDS011;8503;52.472;13.344;2024-02-28T02:22:13;10.15;;;5.00;;
16770;SDS011;8503;52.472;13.344;2024-02-28T02:22:57;10.90;;;5.03;;
16770;SDS011;8503;52.472;13.344;2024-02-28T02:23:40;10.68;;;5.25;;
16770;SDS011;8503;52.472;13.344;2024-02-28T02:24:22;9.38;;;4.60;;
16770;SDS011;8503;52.472;13.344;2024-02-28T02:25:06;8.73;;;4.63;;
16770;SDS011;8503;52.472;13.344;2024-02-28T02:25:49;11.48;;;4.90;;
16770;SDS011;8503;52.472;13.344;2024-02-28T02:26:31;13.15;;;5.57;;
16770;SDS011;8503;52.472;13.344;2024-02-28T02:27:15;12.05;;;5.38;;
16770;SDS011;8503;52.472;13.344;2024-02-28T02:27:57;11.57;;;4.75;;
16770;SDS011;8503;52.472;13.344;2024-02-28T02:28:40;11.95;;;6.25;;
16770;SDS011;8503;52.472;13.344;2024-02-28T02:29:24;11.50;;;5.30;;
16770;SDS011;8503;52.472;13.344;2024-02-28T02:30:07;10.60;;;5.10;;
16770;SDS011;8503;52.472;13.344;2024-02-28T02:30:50;10.43;;;4.80;;
16770;SDS011;8503;52.472;13.344;2024-02-28T02:31:34;11.65;;;4.93;;
16770;SDS011;8503;52.472;13.344;2024-02-28T02:32:16;13.85;;;5.75;;
16770;SDS011;8503;52.472;13.344;2024-02-28T02:32:58;10.02;;;5.00;;
16770;SDS011;8503;52.472;13.344;2024-02-28T02:33:42;9.75;;;4.97;;
16770;SDS011;8503;52.472;13.344;2024-02-28T02:34:24;10.20;;;4.72;;
16770;SDS011;8503;52.472;13.344;2024-02-28T02:35:07;11.57;;;4.60;;
16770;SDS011;8503;52.472;13.344;2024-02-28T02:35:51;12.88;;;5.05;;
16770;SDS011;8503;52.472;13.344;2024-02-28T02:36:34;11.38;;;4.88;;
16770;SDS011;8503;52.472;13.344;2024-02-28T02:37:16;10.73;;;4.55;;
16770;SDS011;8503;52.472;13.344;2024-02-28T02:38:01;9.20;;;4.13;;
16770;SDS011;8503;52.472;13.344;2024-02-28T02:38:44;9.43;;;4.13;;
16770;SDS011;8503;52.472;13.344;2024-02-28T02:39:26;8.45;;;4.72;;
16770;SDS011;8503;52.472;13.344;2024-02-28T02:40:10;11.77;;;4.68;;
16770;SDS011;8503;52.472;13.344;2024-02-28T02:40:53;8.50;;;4.10;;
16770;SDS011;8503;52.472;13.344;2024-02-28T02:41:36;10.32;;;4.93;;
16770;SDS011;8503;52.472;13.344;2024-02-28T02:42:19;8.35;;;3.47;;
16770;SDS011;8503;52.472;13.344;2024-02-28T02:43:01;7.57;;;4.68;;
16770;SDS011;8503;52.472;13.344;2024-02-28T02:43:44;8.27;;;4.47;;
16770;SDS011;8503;52.472;13.344;2024-02-28T02:44:27;7.72;;;3.58;;
16770;SDS011;8503;52.472;13.344;2024-02-28T02:45:10;7.60;;;3.50;;
16770;SDS011;8503;52.472;13.344;2024-02-28T02:45:52;10.15;;;4.60;;
16770;SDS011;8503;52.472;13.344;2024-02-28T02:46:36;8.00;;;3.75;;
16770;SDS011;8503;52.472;13.344;2024-02-28T02:47:19;8.05;;;3.92;;
16770;SDS011;8503;52.472;13.344;2024-02-28T02:48:01;8.73;;;3.70;;
16770;SDS011;8503;52.472;13.344;2024-02-28T02:48:45;10.68;;;4.13;;
16770;SDS011;8503;52.472;13.344;2024-02-28T02:49:27;8.40;;;3.90;;
16770;SDS011;8503;52.472;13.344;2024-02-28T02:50:10;8.70;;;4.07;;
16770;SDS011;8503;52.472;13.344;2024-02-28T02:50:53;7.57;;;4.30;;
16770;SDS011;8503;52.472;13.344;2024-02-28T02:51:36;6.30;;;3.25;;
16770;SDS011;8503;52.472;13.344;2024-02-28T02:52:18;7.70;;;3.20;;
16770;SDS011;8503;52.472;13.344;2024-02-28T02:53:03;7.90;;;3.47;;
16770;SDS011;8503;52.472;13.344;2024-02-28T02:53:48;6.15;;;3.35;;
16770;SDS011;8503;52.472;13.344;2024-02-28T02:54:30;7.43;;;3.95;;
16770;SDS011;8503;52.472;13.344;2024-02-28T02:55:14;7.38;;;3.28;;
16770;SDS011;8503;52.472;13.344;2024-02-28T02:55:56;9.35;;;3.97;;
16770;SDS011;8503;52.472;13.344;2024-02-28T02:56:40;9.13;;;3.88;;
16770;SDS011;8503;52.472;13.344;2024-02-28T02:57:24;6.97;;;3.75;;
16770;SDS011;8503;52.472;13.344;2024-02-28T02:58:07;6.88;;;3.38;;
16770;SDS011;8503;52.472;13.344;2024-02-28T02:58:49;9.50;;;3.83;;
16770;SDS011;8503;52.472;13.344;2024-02-28T02:59:33;8.82;;;3.38;;
16770;SDS011;8503;52.472;13.344;2024-02-28T03:00:15;6.22;;;3.30;;
16770;SDS011;8503;52.472;13.344;2024-02-28T03:00:59;10.68;;;4.40;;
16770;SDS011;8503;52.472;13.344;2024-02-28T03:01:43;8.98;;;3.88;;
16770;SDS011;8503;52.472;13.344;2024-02-28T03:02:25;7.47;;;3.40;;
16770;SDS011;8503;52.472;13.344;2024-02-28T03:03:08;8.82;;;3.65;;
16770;SDS011;8503;52.472;13.344;2024-02-28T03:03:51;9.27;;;4.13;;
16770;SDS011;8503;52.472;13.344;2024-02-28T03:04:34;9.65;;;4.22;;
16770;SDS011;8503;52.472;13.344;2024-02-28T03:05:16;9.00;;;3.35;;
16770;SDS011;8503;52.472;13.344;2024-02-28T03:06:00;6.70;;;3.67;;
16770;SDS011;8503;52.472;13.344;2024-02-28T03:06:42;11.63;;;3.63;;
16770;SDS011;8503;52.472;13.344;2024-02-28T03:07:25;6.93;;;4.15;;
16770;SDS011;8503;52.472;13.344;2024-02-28T03:08:10;8.88;;;3.30;;
16770;SDS011;8503;52.472;13.344;2024-02-28T03:08:52;9.48;;;3.33;;
16770;SDS011;8503;52.472;13.344;2024-02-28T03:09:35;8.45;;;3.35;;
16770;SDS011;8503;52.472;13.344;2024-02-28T03:10:18;7.22;;;3.67;;
16770;SDS011;8503;52.472;13.344;2024-02-28T03:11:00;7.85;;;3.28;;
16770;SDS011;8503;52.472;13.344;2024-02-28T03:11:45;7.70;;;4.03;;
16770;SDS011;8503;52.472;13.344;2024-02-28T03:12:28;6.85;;;2.95;;
16770;SDS011;8503;52.472;13.344;2024-02-28T03:13:10;3.92;;;2.60;;
16770;SDS011;8503;52.472;13.344;2024-02-28T03:13:54;5.63;;;3.38;;
16770;SDS011;8503;52.472;13.344;2024-02-28T03:14:36;4.85;;;2.25;;
16770;SDS011;8503;52.472;13.344;2024-02-28T03:15:19;5.47;;;2.75;;
16770;SDS011;8503;52.472;13.344;2024-02-28T03:16:03;7.60;;;3.10;;
16770;SDS011;8503;52.472;13.344;2024-02-28T03:16:45;7.65;;;2.38;;
16770;SDS011;8503;52.472;13.344;2024-02-28T03:17:29;5.30;;;2.30;;
16770;SDS011;8503;52.472;13.344;2024-02-28T03:18:13;5.13;;;2.30;;
16770;SDS011;8503;52.472;13.344;2024-02-28T03:18:55;6.50;;;2.83;;
16770;SDS011;8503;52.472;13.344;2024-02-28T03:19:38;6.45;;;2.50;;
16770;SDS011;8503;52.472;13.344;2024-02-28T03:20:21;7.18;;;2.65;;
16770;SDS011;8503;52.472;13.344;2024-02-28T03:21:05;5.32;;;2.67;;
16770;SDS011;8503;52.472;13.344;2024-02-28T03:21:48;5.82;;;2.88;;
16770;SDS011;8503;52.472;13.344;2024-02-28T03:22:31;5.50;;;2.38;;
16770;SDS011;8503;52.472;13.344;2024-02-28T03:23:16;6.22;;;2.53;;
16770;SDS011;8503;52.472;13.344;2024-02-28T03:23:58;6.45;;;3.08;;
16770;SDS011;8503;52.472;13.344;2024-02-28T03:24:42;6.97;;;2.60;;
16770;SDS011;8503;52.472;13.344;2024-02-28T03:25:24;5.85;;;2.92;;
16770;SDS011;8503;52.472;13.344;2024-02-28T03:26:07;4.00;;;2.28;;
16770;SDS011;8503;52.472;13.344;2024-02-28T03:26:51;4.88;;;2.60;;
16770;SDS011;8503;52.472;13.344;2024-02-28T03:27:33;5.30;;;2.10;;
16770;SDS011;8503;52.472;13.344;2024-02-28T03:28:16;5.00;;;2.45;;
16770;SDS011;8503;52.472;13.344;2024-02-28T03:28:59;4.88;;;2.35;;
16770;SDS011;8503;52.472;13.344;2024-02-28T03:29:42;6.03;;;2.60;;
16770;SDS011;8503;52.472;13.344;2024-02-28T03:30:24;8.35;;;3.67;;
16770;SDS011;8503;52.472;13.344;2024-02-28T03:31:08;6.95;;;2.83;;
16770;SDS011;8503;52.472;13.344;2024-02-28T03:31:51;5.63;;;2.65;;
16770;SDS011;8503;52.472;13.344;2024-02-28T03:32:34;6.00;;;2.92;;
16770;SDS011;8503;52.472;13.344;2024-02-28T03:33:17;6.35;;;2.80;;
16770;SDS011;8503;52.472;13.344;2024-02-28T03:34:00;6.68;;;3.00;;
16770;SDS011;8503;52.472;13.344;2024-02-28T03:34:42;7.60;;;2.80;;
16770;SDS011;8503;52.472;13.344;2024-02-28T03:35:26;8.05;;;2.55;;
16770;SDS011;8503;52.472;13.344;2024-02-28T03:36:08;6.90;;;2.58;;
16770;SDS011;8503;52.472;13.344;2024-02-28T03:36:51;5.97;;;2.58;;
16770;SDS011;8503;52.472;13.344;2024-02-28T03:37:34;6.90;;;3.05;;
16770;SDS011;8503;52.472;13.344;2024-02-28T03:38:18;6.72;;;2.80;;
16770;SDS011;8503;52.472;13.344;2024-02-28T03:39:00;6.63;;;3.35;;
16770;SDS011;8503;52.472;13.344;2024-02-28T03:39:44;7.93;;;2.88;;
16770;SDS011;8503;52.472;13.344;2024-02-28T03:40:27;4.60;;;2.67;;
16770;SDS011;8503;52.472;13.344;2024-02-28T03:41:09;6.20;;;2.70;;
16770;SDS011;8503;52.472;13.344;2024-02-28T03:41:53;5.45;;;2.67;;
16770;SDS011;8503;52.472;13.344;2024-02-28T03:42:35;7.72;;;3.03;;
16770;SDS011;8503;52.472;13.344;2024-02-28T03:43:18;8.05;;;3.00;;
16770;SDS011;8503;52.472;13.344;2024-02-28T03:44:01;6.45;;;2.83;;
16770;SDS011;8503;52.472;13.344;2024-02-28T03:44:44;5.90;;;2.83;;
16770;SDS011;8503;52.472;13.344;2024-02-28T03:45:27;5.32;;;2.75;;
16770;SDS011;8503;52.472;13.344;2024-02-28T03:46:09;10.43;;;2.85;;
16770;SDS011;8503;52.472;13.344;2024-02-28T03:46:53;6.78;;;2.70;;
16770;SDS011;8503;52.472;13.344;2024-02-28T03:47:35;4.90;;;2.58;;
16770;SDS011;8503;52.472;13.344;2024-02-28T03:48:18;7.13;;;3.22;;
16770;SDS011;8503;52.472;13.344;2024-02-28T03:49:01;6.53;;;3.28;;
16770;SDS011;8503;52.472;13.344;2024-02-28T03:49:44;5.55;;;2.88;;
16770;SDS011;8503;52.472;13.344;2024-02-28T03:50:26;6.05;;;2.75;;
16770;SDS011;8503;52.472;13.344;2024-02-28T03:51:10;5.15;;;2.20;;
16770;SDS011;8503;52.472;13.344;2024-02-28T03:51:52;4.70;;;2.35;;
16770;SDS011;8503;52.472;13.344;2024-02-28T03:52:34;7.32;;;2.97;;
16770;SDS011;8503;52.472;13.344;2024-02-28T03:53:18;5.65;;;2.90;;
16770;SDS011;8503;52.472;13.344;2024-02-28T03:54:02;5.32;;;2.60;;
16770;SDS011;8503;52.472;13.344;2024-02-28T03:54:44;4.90;;;3.10;;
16770;SDS011;8503;52.472;13.344;2024-02-28T03:55:27;6.88;;;2.75;;
16770;SDS011;8503;52.472;13.344;2024-02-28T03:56:10;7.40;;;2.85;;
16770;SDS011;8503;52.472;13.344;2024-02-28T03:56:53;4.85;;;2.38;;
16770;SDS011;8503;52.472;13.344;2024-02-28T03:57:35;5.75;;;2.42;;
16770;SDS011;8503;52.472;13.344;2024-02-28T03:58:19;5.90;;;2.78;;
16770;SDS011;8503;52.472;13.344;2024-02-28T03:59:01;6.28;;;2.47;;
16770;SDS011;8503;52.472;13.344;2024-02-28T03:59:45;4.68;;;2.60;;
16770;SDS011;8503;52.472;13.344;2024-02-28T04:00:28;5.03;;;2.17;;
16770;SDS011;8503;52.472;13.344;2024-02-28T04:01:11;4.97;;;2.78;;
16770;SDS011;8503;52.472;13.344;2024-02-28T04:01:54;5.90;;;2.67;;
16770;SDS011;8503;52.472;13.344;2024-02-28T04:02:38;6.72;;;2.67;;
16770;SDS011;8503;52.472;13.344;2024-02-28T04:03:20;5.05;;;2.05;;
16770;SDS011;8503;52.472;13.344;2024-02-28T04:04:03;4.70;;;2.85;;
16770;SDS011;8503;52.472;13.344;2024-02-28T04:04:45;4.47;;;2.20;;
16770;SDS011;8503;52.472;13.344;2024-02-28T04:05:29;5.25;;;2.75;;
16770;SDS011;8503;52.472;13.344;2024-02-28T04:06:11;6.82;;;2.78;;
16770;SDS011;8503;52.472;13.344;2024-02-28T04:06:54;5.78;;;2.90;;
16770;SDS011;8503;52.472;13.344;2024-02-28T04:07:38;4.45;;;2.55;;
16770;SDS011;8503;52.472;13.344;2024-02-28T04:08:21;6.25;;;2.50;;
16770;SDS011;8503;52.472;13.344;2024-02-28T04:09:04;5.00;;;2.45;;
16770;SDS011;8503;52.472;13.344;2024-02-28T04:09:47;4.90;;;2.45;;
16770;SDS011;8503;52.472;13.344;2024-02-28T04:10:30;6.53;;;2.90;;
16770;SDS011;8503;52.472;13.344;2024-02-28T04:11:13;4.82;;;2.30;;
16770;SDS011;8503;52.472;13.344;2024-02-28T04:11:56;5.97;;;2.60;;
16770;SDS011;8503;52.472;13.344;2024-02-28T04:12:39;5.65;;;2.65;;
16770;SDS011;8503;52.472;13.344;2024-02-28T04:13:21;5.38;;;2.60;;
16770;SDS011;8503;52.472;13.344;2024-02-28T04:14:05;3.08;;;1.85;;
16770;SDS011;8503;52.472;13.344;2024-02-28T04:14:47;7.10;;;2.83;;
16770;SDS011;8503;52.472;13.344;2024-02-28T04:15:30;7.30;;;3.30;;
16770;SDS011;8503;52.472;13.344;2024-02-28T04:16:18;7.07;;;3.28;;
16770;SDS011;8503;52.472;13.344;2024-02-28T04:17:01;8.93;;;3.30;;
16770;SDS011;8503;52.472;13.344;2024-02-28T04:17:43;7.80;;;2.90;;